sensor_id;sensor_type;location;lat;lon;timestamp;pressure;altitude;pressure_sealevel;temperature
39959;BMP280;25639;53.634;9.880;2022-07-06T00:02:23;155961.28;;;14.51
39959;BMP280;25639;53.634;9.880;2022-07-06T00:04:48;155971.50;;;14.55
39959;BMP280;25639;53.634;9.880;2022-07-06T00:07:13;155956.19;;;14.49
39959;BMP280;25639;53.634;9.880;2022-07-06T00:09:40;155958.72;;;14.50
39959;BMP280;25639;53.634;9.880;2022-07-06T00:12:05;155961.28;;;14.51
39959;BMP280;25639;53.634;9.880;2022-07-06T00:14:31;155954.88;;;14.48
39959;BMP280;25639;53.634;9.880;2022-07-06T00:16:56;155952.34;;;14.47
39959;BMP280;25639;53.634;9.880;2022-07-06T00:19:22;155954.88;;;14.48
39959;BMP280;25639;53.634;9.880;2022-07-06T00:21:47;155948.50;;;14.46
39959;BMP280;25639;53.634;9.880;2022-07-06T00:24:12;155954.88;;;14.48
39959;BMP280;25639;53.634;9.880;2022-07-06T00:26:38;155949.75;;;14.46
39959;BMP280;25639;53.634;9.880;2022-07-06T00:29:03;155947.22;;;14.45
39959;BMP280;25639;53.634;9.880;2022-07-06T00:31:28;155942.13;;;14.43
39959;BMP280;25639;53.634;9.880;2022-07-06T00:33:53;155945.91;;;14.45
39959;BMP280;25639;53.634;9.880;2022-07-06T00:36:19;155945.91;;;14.45
39959;BMP280;25639;53.634;9.880;2022-07-06T00:38:44;155949.75;;;14.46
39959;BMP280;25639;53.634;9.880;2022-07-06T00:41:09;155948.50;;;14.46
39959;BMP280;25639;53.634;9.880;2022-07-06T00:46:13;155928.03;;;14.38
39959;BMP280;25639;53.634;9.880;2022-07-06T00:48:39;155926.75;;;14.37
39959;BMP280;25639;53.634;9.880;2022-07-06T00:51:04;155928.03;;;14.38
39959;BMP280;25639;53.634;9.880;2022-07-06T00:53:30;155940.81;;;14.43
39959;BMP280;25639;53.634;9.880;2022-07-06T00:55:55;155921.66;;;14.35
39959;BMP280;25639;53.634;9.880;2022-07-06T00:58:21;155925.50;;;14.37
39959;BMP280;25639;53.634;9.880;2022-07-06T01:00:46;155915.28;;;14.33
39959;BMP280;25639;53.634;9.880;2022-07-06T01:03:11;155907.59;;;14.29
39959;BMP280;25639;53.634;9.880;2022-07-06T01:05:37;155905.03;;;14.28
39959;BMP280;25639;53.634;9.880;2022-07-06T01:08:02;155890.97;;;14.23
39959;BMP280;25639;53.634;9.880;2022-07-06T01:10:28;155898.66;;;14.26
39959;BMP280;25639;53.634;9.880;2022-07-06T01:12:53;155893.53;;;14.24
39959;BMP280;25639;53.634;9.880;2022-07-06T01:15:21;155878.19;;;14.18
39959;BMP280;25639;53.634;9.880;2022-07-06T01:17:47;155882.03;;;14.19
39959;BMP280;25639;53.634;9.880;2022-07-06T01:20:23;155879.44;;;14.18
39959;BMP280;25639;53.634;9.880;2022-07-06T01:22:50;155874.34;;;14.16
39959;BMP280;25639;53.634;9.880;2022-07-06T01:25:17;155871.81;;;14.15
39959;BMP280;25639;53.634;9.880;2022-07-06T01:27:43;155882.03;;;14.19
39959;BMP280;25639;53.634;9.880;2022-07-06T01:30:11;155883.28;;;14.20
39959;BMP280;25639;53.634;9.880;2022-07-06T01:32:37;155892.22;;;14.23
39959;BMP280;25639;53.634;9.880;2022-07-06T01:35:05;155890.97;;;14.23
39959;BMP280;25639;53.634;9.880;2022-07-06T01:37:30;155880.75;;;14.19
39959;BMP280;25639;53.634;9.880;2022-07-06T01:40:03;155878.19;;;14.18
39959;BMP280;25639;53.634;9.880;2022-07-06T01:42:29;155875.66;;;14.17
39959;BMP280;25639;53.634;9.880;2022-07-06T01:44:55;155875.66;;;14.17
39959;BMP280;25639;53.634;9.880;2022-07-06T01:47:20;155873.06;;;14.16
39959;BMP280;25639;53.634;9.880;2022-07-06T01:49:45;155880.75;;;14.19
39959;BMP280;25639;53.634;9.880;2022-07-06T01:52:11;155876.91;;;14.17
39959;BMP280;25639;53.634;9.880;2022-07-06T01:54:36;155887.13;;;14.21
39959;BMP280;25639;53.634;9.880;2022-07-06T01:57:02;155889.69;;;14.22
39959;BMP280;25639;53.634;9.880;2022-07-06T01:59:27;155887.13;;;14.21
39959;BMP280;25639;53.634;9.880;2022-07-06T02:01:52;155893.53;;;14.24
39959;BMP280;25639;53.634;9.880;2022-07-06T02:04:18;155899.91;;;14.26
39959;BMP280;25639;53.634;9.880;2022-07-06T02:06:43;155894.81;;;14.24
39959;BMP280;25639;53.634;9.880;2022-07-06T02:09:08;155892.22;;;14.23
39959;BMP280;25639;53.634;9.880;2022-07-06T02:11:34;155866.72;;;14.13
39959;BMP280;25639;53.634;9.880;2022-07-06T02:13:59;155880.75;;;14.19
39959;BMP280;25639;53.634;9.880;2022-07-06T02:16:24;155870.50;;;14.15
39959;BMP280;25639;53.634;9.880;2022-07-06T02:18:50;155852.59;;;14.07
39959;BMP280;25639;53.634;9.880;2022-07-06T02:21:15;155850.06;;;14.06
39959;BMP280;25639;53.634;9.880;2022-07-06T02:23:40;155851.34;;;14.07
39959;BMP280;25639;53.634;9.880;2022-07-06T02:26:06;155870.50;;;14.15
39959;BMP280;25639;53.634;9.880;2022-07-06T02:28:31;155864.13;;;14.12
39959;BMP280;25639;53.634;9.880;2022-07-06T02:30:56;155853.91;;;14.08
39959;BMP280;25639;53.634;9.880;2022-07-06T02:33:22;155853.91;;;14.08
39959;BMP280;25639;53.634;9.880;2022-07-06T02:35:47;155851.34;;;14.07
39959;BMP280;25639;53.634;9.880;2022-07-06T02:38:13;155832.19;;;13.99
39959;BMP280;25639;53.634;9.880;2022-07-06T02:40:38;155827.06;;;13.97
39959;BMP280;25639;53.634;9.880;2022-07-06T02:43:04;155827.06;;;13.97
39959;BMP280;25639;53.634;9.880;2022-07-06T02:45:30;155823.22;;;13.96
39959;BMP280;25639;53.634;9.880;2022-07-06T02:47:55;155814.28;;;13.92
39959;BMP280;25639;53.634;9.880;2022-07-06T02:50:22;155821.97;;;13.95
39959;BMP280;25639;53.634;9.880;2022-07-06T02:52:48;155828.34;;;13.98
39959;BMP280;25639;53.634;9.880;2022-07-06T02:55:13;155838.56;;;14.02
39959;BMP280;25639;53.634;9.880;2022-07-06T02:57:38;155828.34;;;13.98
39959;BMP280;25639;53.634;9.880;2022-07-06T03:00:04;155833.44;;;14.00
39959;BMP280;25639;53.634;9.880;2022-07-06T03:02:30;155820.66;;;13.95
39959;BMP280;25639;53.634;9.880;2022-07-06T03:04:56;155832.19;;;13.99
39959;BMP280;25639;53.634;9.880;2022-07-06T03:07:22;155830.91;;;13.99
39959;BMP280;25639;53.634;9.880;2022-07-06T03:09:47;155823.22;;;13.96
39959;BMP280;25639;53.634;9.880;2022-07-06T03:12:12;155823.22;;;13.96
39959;BMP280;25639;53.634;9.880;2022-07-06T03:14:37;155829.59;;;13.98
39959;BMP280;25639;53.634;9.880;2022-07-06T03:17:03;155825.75;;;13.97
39959;BMP280;25639;53.634;9.880;2022-07-06T03:19:28;155809.19;;;13.90
39959;BMP280;25639;53.634;9.880;2022-07-06T03:21:54;155807.88;;;13.89
39959;BMP280;25639;53.634;9.880;2022-07-06T03:24:19;155810.44;;;13.90
39959;BMP280;25639;53.634;9.880;2022-07-06T03:26:44;155813.03;;;13.91
39959;BMP280;25639;53.634;9.880;2022-07-06T03:29:09;155811.72;;;13.91
39959;BMP280;25639;53.634;9.880;2022-07-06T03:31:35;155797.66;;;13.85
39959;BMP280;25639;53.634;9.880;2022-07-06T03:34:00;155805.34;;;13.88
39959;BMP280;25639;53.634;9.880;2022-07-06T03:36:25;155795.13;;;13.84
39959;BMP280;25639;53.634;9.880;2022-07-06T03:38:51;155801.50;;;13.87
39959;BMP280;25639;53.634;9.880;2022-07-06T03:41:16;155789.97;;;13.82
39959;BMP280;25639;53.634;9.880;2022-07-06T03:43:41;155796.41;;;13.85
39959;BMP280;25639;53.634;9.880;2022-07-06T03:46:06;155807.88;;;13.89
39959;BMP280;25639;53.634;9.880;2022-07-06T03:48:32;155810.44;;;13.90
39959;BMP280;25639;53.634;9.880;2022-07-06T03:50:57;155813.03;;;13.91
39959;BMP280;25639;53.634;9.880;2022-07-06T03:53:22;155807.88;;;13.89
39959;BMP280;25639;53.634;9.880;2022-07-06T03:55:48;155809.19;;;13.90
39959;BMP280;25639;53.634;9.880;2022-07-06T03:58:33;155805.34;;;13.88
39959;BMP280;25639;53.634;9.880;2022-07-06T04:00:59;155804.06;;;13.88
39959;BMP280;25639;53.634;9.880;2022-07-06T04:03:25;155807.88;;;13.89
39959;BMP280;25639;53.634;9.880;2022-07-06T04:05:50;155791.28;;;13.83
39959;BMP280;25639;53.634;9.880;2022-07-06T04:08:15;155797.66;;;13.85
39959;BMP280;25639;53.634;9.880;2022-07-06T04:10:41;155813.03;;;13.91
39959;BMP280;25639;53.634;9.880;2022-07-06T04:13:06;155823.22;;;13.96
39959;BMP280;25639;53.634;9.880;2022-07-06T04:15:31;155823.22;;;13.96
39959;BMP280;25639;53.634;9.880;2022-07-06T04:17:57;155833.44;;;14.00
39959;BMP280;25639;53.634;9.880;2022-07-06T04:20:23;155848.81;;;14.06
39959;BMP280;25639;53.634;9.880;2022-07-06T04:22:50;155859.03;;;14.10
39959;BMP280;25639;53.634;9.880;2022-07-06T04:25:16;155856.44;;;14.09
39959;BMP280;25639;53.634;9.880;2022-07-06T04:27:41;155850.06;;;14.06
39959;BMP280;25639;53.634;9.880;2022-07-06T04:30:08;155873.06;;;14.16
39959;BMP280;25639;53.634;9.880;2022-07-06T04:32:34;155878.19;;;14.18
39959;BMP280;25639;53.634;9.880;2022-07-06T04:34:59;155888.44;;;14.22
39959;BMP280;25639;53.634;9.880;2022-07-06T04:37:25;155907.59;;;14.29
39959;BMP280;25639;53.634;9.880;2022-07-06T04:39:50;155953.59;;;14.48
39959;BMP280;25639;53.634;9.880;2022-07-06T04:42:15;155953.59;;;14.48
39959;BMP280;25639;53.634;9.880;2022-07-06T04:44:41;155971.50;;;14.55
39959;BMP280;25639;53.634;9.880;2022-07-06T04:47:06;155974.06;;;14.56
39959;BMP280;25639;53.634;9.880;2022-07-06T04:49:32;155957.44;;;14.49
39959;BMP280;25639;53.634;9.880;2022-07-06T04:51:57;155951.06;;;14.47
39959;BMP280;25639;53.634;9.880;2022-07-06T04:54:22;155943.38;;;14.44
39959;BMP280;25639;53.634;9.880;2022-07-06T04:56:48;155956.19;;;14.49
39959;BMP280;25639;53.634;9.880;2022-07-06T04:59:13;155958.72;;;14.50
39959;BMP280;25639;53.634;9.880;2022-07-06T05:01:39;155967.66;;;14.54
39959;BMP280;25639;53.634;9.880;2022-07-06T05:04:05;155984.34;;;14.60
39959;BMP280;25639;53.634;9.880;2022-07-06T05:06:31;155966.41;;;14.53
39959;BMP280;25639;53.634;9.880;2022-07-06T05:08:56;155957.44;;;14.49
39959;BMP280;25639;53.634;9.880;2022-07-06T05:11:21;155960.03;;;14.51
39959;BMP280;25639;53.634;9.880;2022-07-06T05:13:47;155995.88;;;14.65
39959;BMP280;25639;53.634;9.880;2022-07-06T05:16:12;155981.75;;;14.59
39959;BMP280;25639;53.634;9.880;2022-07-06T05:18:37;155985.59;;;14.61
39959;BMP280;25639;53.634;9.880;2022-07-06T05:21:02;155990.72;;;14.63
39959;BMP280;25639;53.634;9.880;2022-07-06T05:23:28;155999.66;;;14.66
39959;BMP280;25639;53.634;9.880;2022-07-06T05:25:53;156011.19;;;14.71
39959;BMP280;25639;53.634;9.880;2022-07-06T05:28:18;156017.63;;;14.74
39959;BMP280;25639;53.634;9.880;2022-07-06T05:30:44;156026.56;;;14.77
39959;BMP280;25639;53.634;9.880;2022-07-06T05:33:09;156040.63;;;14.83
39959;BMP280;25639;53.634;9.880;2022-07-06T05:35:34;156043.16;;;14.84
39959;BMP280;25639;53.634;9.880;2022-07-06T05:38:00;156050.84;;;14.87
39959;BMP280;25639;53.634;9.880;2022-07-06T05:40:25;156036.78;;;14.81
39959;BMP280;25639;53.634;9.880;2022-07-06T05:42:50;156064.91;;;14.93
39959;BMP280;25639;53.634;9.880;2022-07-06T05:45:16;156068.75;;;14.94
39959;BMP280;25639;53.634;9.880;2022-07-06T05:47:41;156067.47;;;14.94
39959;BMP280;25639;53.634;9.880;2022-07-06T05:50:25;156055.94;;;14.89
39959;BMP280;25639;53.634;9.880;2022-07-06T05:52:59;156072.59;;;14.96
39959;BMP280;25639;53.634;9.880;2022-07-06T05:55:25;156071.31;;;14.95
39959;BMP280;25639;53.634;9.880;2022-07-06T05:57:50;156072.59;;;14.96
39959;BMP280;25639;53.634;9.880;2022-07-06T06:00:16;156055.94;;;14.89
39959;BMP280;25639;53.634;9.880;2022-07-06T06:02:42;156057.22;;;14.90
39959;BMP280;25639;53.634;9.880;2022-07-06T06:05:09;156050.84;;;14.87
39959;BMP280;25639;53.634;9.880;2022-07-06T06:07:36;156017.63;;;14.74
39959;BMP280;25639;53.634;9.880;2022-07-06T06:10:07;156012.47;;;14.72
39959;BMP280;25639;53.634;9.880;2022-07-06T06:12:33;156017.63;;;14.74
39959;BMP280;25639;53.634;9.880;2022-07-06T06:14:58;156050.84;;;14.87
39959;BMP280;25639;53.634;9.880;2022-07-06T06:17:24;156077.69;;;14.98
39959;BMP280;25639;53.634;9.880;2022-07-06T06:19:49;156077.69;;;14.98
39959;BMP280;25639;53.634;9.880;2022-07-06T06:22:14;156114.75;;;15.13
39959;BMP280;25639;53.634;9.880;2022-07-06T06:24:40;156125.03;;;15.17
39959;BMP280;25639;53.634;9.880;2022-07-06T06:27:05;156141.63;;;15.23
39959;BMP280;25639;53.634;9.880;2022-07-06T06:29:31;156199.19;;;15.47
39959;BMP280;25639;53.634;9.880;2022-07-06T06:31:56;156223.53;;;15.56
39959;BMP280;25639;53.634;9.880;2022-07-06T06:34:21;156206.88;;;15.50
39959;BMP280;25639;53.634;9.880;2022-07-06T06:36:47;156183.84;;;15.40
39959;BMP280;25639;53.634;9.880;2022-07-06T06:39:12;156190.22;;;15.43
39959;BMP280;25639;53.634;9.880;2022-07-06T06:41:37;156183.84;;;15.40
39959;BMP280;25639;53.634;9.880;2022-07-06T06:44:03;156187.69;;;15.42
39959;BMP280;25639;53.634;9.880;2022-07-06T06:46:28;156196.66;;;15.46
39959;BMP280;25639;53.634;9.880;2022-07-06T06:48:53;156201.75;;;15.48
39959;BMP280;25639;53.634;9.880;2022-07-06T06:51:20;156209.47;;;15.51
39959;BMP280;25639;53.634;9.880;2022-07-06T06:53:46;156186.38;;;15.41
39959;BMP280;25639;53.634;9.880;2022-07-06T06:56:11;156187.69;;;15.42
39959;BMP280;25639;53.634;9.880;2022-07-06T06:58:36;156204.28;;;15.49
39959;BMP280;25639;53.634;9.880;2022-07-06T07:01:02;156246.53;;;15.66
39959;BMP280;25639;53.634;9.880;2022-07-06T07:03:27;156286.25;;;15.81
39959;BMP280;25639;53.634;9.880;2022-07-06T07:05:52;156320.81;;;15.95
39959;BMP280;25639;53.634;9.880;2022-07-06T07:08:18;156320.81;;;15.95
39959;BMP280;25639;53.634;9.880;2022-07-06T07:10:43;156342.53;;;16.04
39959;BMP280;25639;53.634;9.880;2022-07-06T07:13:08;156348.97;;;16.07
39959;BMP280;25639;53.634;9.880;2022-07-06T07:15:34;156322.09;;;15.96
39959;BMP280;25639;53.634;9.880;2022-07-06T07:17:59;156311.84;;;15.92
39959;BMP280;25639;53.634;9.880;2022-07-06T07:20:24;156310.53;;;15.91
39959;BMP280;25639;53.634;9.880;2022-07-06T07:22:50;156306.69;;;15.90
39959;BMP280;25639;53.634;9.880;2022-07-06T07:25:16;156293.94;;;15.85
39959;BMP280;25639;53.634;9.880;2022-07-06T07:27:41;156268.34;;;15.74
39959;BMP280;25639;53.634;9.880;2022-07-06T07:30:07;156232.47;;;15.60
39959;BMP280;25639;53.634;9.880;2022-07-06T07:32:32;156206.88;;;15.50
39959;BMP280;25639;53.634;9.880;2022-07-06T07:34:57;156224.78;;;15.57
39959;BMP280;25639;53.634;9.880;2022-07-06T07:37:23;156208.13;;;15.50
39959;BMP280;25639;53.634;9.880;2022-07-06T07:39:51;156242.69;;;15.64
39959;BMP280;25639;53.634;9.880;2022-07-06T07:42:16;156243.97;;;15.64
39959;BMP280;25639;53.634;9.880;2022-07-06T07:44:42;156210.72;;;15.51
39959;BMP280;25639;53.634;9.880;2022-07-06T07:47:07;156210.72;;;15.51
39959;BMP280;25639;53.634;9.880;2022-07-06T07:49:33;156238.84;;;15.62
39959;BMP280;25639;53.634;9.880;2022-07-06T07:51:58;156300.31;;;15.87
39959;BMP280;25639;53.634;9.880;2022-07-06T07:54:23;156308.00;;;15.90
39959;BMP280;25639;53.634;9.880;2022-07-06T07:56:48;156382.22;;;16.20
39959;BMP280;25639;53.634;9.880;2022-07-06T07:59:14;156546.13;;;16.86
39959;BMP280;25639;53.634;9.880;2022-07-06T08:01:39;156706.19;;;17.50
39959;BMP280;25639;53.634;9.880;2022-07-06T08:04:05;156931.75;;;18.40
39959;BMP280;25639;53.634;9.880;2022-07-06T08:06:30;157045.81;;;18.86
39959;BMP280;25639;53.634;9.880;2022-07-06T08:08:56;157000.91;;;18.68
39959;BMP280;25639;53.634;9.880;2022-07-06T08:11:21;156980.38;;;18.60
39959;BMP280;25639;53.634;9.880;2022-07-06T08:13:46;156844.59;;;18.05
39959;BMP280;25639;53.634;9.880;2022-07-06T08:16:12;156653.66;;;17.29
39959;BMP280;25639;53.634;9.880;2022-07-06T08:18:39;156625.50;;;17.18
39959;BMP280;25639;53.634;9.880;2022-07-06T08:21:04;156642.16;;;17.24
39959;BMP280;25639;53.634;9.880;2022-07-06T08:23:30;156592.19;;;17.04
39959;BMP280;25639;53.634;9.880;2022-07-06T08:25:57;156538.38;;;16.83
39959;BMP280;25639;53.634;9.880;2022-07-06T08:28:22;156555.06;;;16.89
39959;BMP280;25639;53.634;9.880;2022-07-06T08:30:48;156489.72;;;16.63
39959;BMP280;25639;53.634;9.880;2022-07-06T08:33:14;156528.16;;;16.78
39959;BMP280;25639;53.634;9.880;2022-07-06T08:35:39;156569.16;;;16.95
39959;BMP280;25639;53.634;9.880;2022-07-06T08:38:04;156706.19;;;17.50
39959;BMP280;25639;53.634;9.880;2022-07-06T08:40:34;156874.06;;;18.17
39959;BMP280;25639;53.634;9.880;2022-07-06T08:43:00;157035.59;;;18.82
39959;BMP280;25639;53.634;9.880;2022-07-06T08:45:26;156827.91;;;17.99
39959;BMP280;25639;53.634;9.880;2022-07-06T08:47:53;156930.41;;;18.40
39959;BMP280;25639;53.634;9.880;2022-07-06T08:50:19;157038.13;;;18.83
39959;BMP280;25639;53.634;9.880;2022-07-06T08:52:49;157215.06;;;19.54
39959;BMP280;25639;53.634;9.880;2022-07-06T08:55:16;157420.31;;;20.36
39959;BMP280;25639;53.634;9.880;2022-07-06T08:57:48;157530.72;;;20.80
39959;BMP280;25639;53.634;9.880;2022-07-06T09:00:14;157633.38;;;21.21
39959;BMP280;25639;53.634;9.880;2022-07-06T09:02:40;157786.19;;;21.82
39959;BMP280;25639;53.634;9.880;2022-07-06T09:05:06;157854.22;;;22.09
39959;BMP280;25639;53.634;9.880;2022-07-06T09:07:34;157858.06;;;22.11
39959;BMP280;25639;53.634;9.880;2022-07-06T09:10:00;157877.31;;;22.19
39959;BMP280;25639;53.634;9.880;2022-07-06T09:12:29;157751.50;;;21.68
39959;BMP280;25639;53.634;9.880;2022-07-06T09:14:56;157736.13;;;21.62
39959;BMP280;25639;53.634;9.880;2022-07-06T09:17:25;157791.31;;;21.84
39959;BMP280;25639;53.634;9.880;2022-07-06T09:19:54;157608.97;;;21.11
39959;BMP280;25639;53.634;9.880;2022-07-06T09:24:51;157502.44;;;20.69
39959;BMP280;25639;53.634;9.880;2022-07-06T09:27:16;157456.25;;;20.50
39959;BMP280;25639;53.634;9.880;2022-07-06T09:29:42;157457.50;;;20.51
39959;BMP280;25639;53.634;9.880;2022-07-06T09:32:08;157555.06;;;20.90
39959;BMP280;25639;53.634;9.880;2022-07-06T09:34:44;157472.94;;;20.57
39959;BMP280;25639;53.634;9.880;2022-07-06T09:37:11;157394.66;;;20.26
39959;BMP280;25639;53.634;9.880;2022-07-06T09:39:36;157426.72;;;20.38
39959;BMP280;25639;53.634;9.880;2022-07-06T09:42:03;157483.22;;;20.61
39959;BMP280;25639;53.634;9.880;2022-07-06T09:44:31;157585.88;;;21.02
39959;BMP280;25639;53.634;9.880;2022-07-06T09:46:58;157783.59;;;21.81
39959;BMP280;25639;53.634;9.880;2022-07-06T09:49:25;157791.31;;;21.84
39959;BMP280;25639;53.634;9.880;2022-07-06T09:51:52;157783.59;;;21.81
39959;BMP280;25639;53.634;9.880;2022-07-06T09:54:18;157705.31;;;21.50
39959;BMP280;25639;53.634;9.880;2022-07-06T09:56:45;157642.38;;;21.25
39959;BMP280;25639;53.634;9.880;2022-07-06T09:59:21;157366.44;;;20.14
39959;BMP280;25639;53.634;9.880;2022-07-06T10:01:51;157272.81;;;19.77
39959;BMP280;25639;53.634;9.880;2022-07-06T10:04:17;157104.78;;;19.10
39959;BMP280;25639;53.634;9.880;2022-07-06T10:06:45;157056.06;;;18.90
39959;BMP280;25639;53.634;9.880;2022-07-06T10:09:11;156899.66;;;18.27
39959;BMP280;25639;53.634;9.880;2022-07-06T10:11:39;156857.41;;;18.10
39959;BMP280;25639;53.634;9.880;2022-07-06T10:14:06;156826.66;;;17.98
39959;BMP280;25639;53.634;9.880;2022-07-06T10:16:35;156747.16;;;17.66
39959;BMP280;25639;53.634;9.880;2022-07-06T10:19:02;156717.75;;;17.55
39959;BMP280;25639;53.634;9.880;2022-07-06T10:21:29;156611.44;;;17.12
39959;BMP280;25639;53.634;9.880;2022-07-06T10:23:55;156549.97;;;16.87
39959;BMP280;25639;53.634;9.880;2022-07-06T10:26:23;156507.63;;;16.70
39959;BMP280;25639;53.634;9.880;2022-07-06T10:28:48;156533.25;;;16.81
39959;BMP280;25639;53.634;9.880;2022-07-06T10:31:15;156526.88;;;16.78
39959;BMP280;25639;53.634;9.880;2022-07-06T10:33:42;156583.22;;;17.01
39959;BMP280;25639;53.634;9.880;2022-07-06T10:36:09;156633.22;;;17.21
39959;BMP280;25639;53.634;9.880;2022-07-06T10:38:35;156648.56;;;17.27
39959;BMP280;25639;53.634;9.880;2022-07-06T10:41:05;156731.81;;;17.60
39959;BMP280;25639;53.634;9.880;2022-07-06T10:43:45;156774.06;;;17.77
39959;BMP280;25639;53.634;9.880;2022-07-06T10:46:15;156835.63;;;18.02
39959;BMP280;25639;53.634;9.880;2022-07-06T10:48:46;156879.19;;;18.19
39959;BMP280;25639;53.634;9.880;2022-07-06T10:51:14;156945.81;;;18.46
39959;BMP280;25639;53.634;9.880;2022-07-06T10:53:55;157003.50;;;18.69
39959;BMP280;25639;53.634;9.880;2022-07-06T10:56:20;157023.97;;;18.77
39959;BMP280;25639;53.634;9.880;2022-07-06T10:58:56;157159.94;;;19.32
39959;BMP280;25639;53.634;9.880;2022-07-06T11:01:27;157386.94;;;20.23
39959;BMP280;25639;53.634;9.880;2022-07-06T11:04:14;157487.09;;;20.63
39959;BMP280;25639;53.634;9.880;2022-07-06T11:06:39;157411.34;;;20.32
39959;BMP280;25639;53.634;9.880;2022-07-06T11:09:09;157366.44;;;20.14
39959;BMP280;25639;53.634;9.880;2022-07-06T11:14:17;157704.00;;;21.49
39959;BMP280;25639;53.634;9.880;2022-07-06T11:19:22;157511.44;;;20.72
39959;BMP280;25639;53.634;9.880;2022-07-06T11:21:56;157324.09;;;19.97
39959;BMP280;25639;53.634;9.880;2022-07-06T11:24:28;157315.09;;;19.94
39959;BMP280;25639;53.634;9.880;2022-07-06T11:26:56;157262.53;;;19.73
39959;BMP280;25639;53.634;9.880;2022-07-06T11:29:23;157170.19;;;19.36
39959;BMP280;25639;53.634;9.880;2022-07-06T11:31:51;157130.44;;;19.20
39959;BMP280;25639;53.634;9.880;2022-07-06T11:34:28;157147.09;;;19.27
39959;BMP280;25639;53.634;9.880;2022-07-06T11:36:58;157321.56;;;19.96
39959;BMP280;25639;53.634;9.880;2022-07-06T11:39:34;157298.47;;;19.87
39959;BMP280;25639;53.634;9.880;2022-07-06T11:42:01;157322.81;;;19.97
39959;BMP280;25639;53.634;9.880;2022-07-06T11:44:27;157308.72;;;19.91
39959;BMP280;25639;53.634;9.880;2022-07-06T11:46:52;157413.88;;;20.33
39959;BMP280;25639;53.634;9.880;2022-07-06T11:49:20;157539.69;;;20.84
39959;BMP280;25639;53.634;9.880;2022-07-06T11:51:46;157530.72;;;20.80
39959;BMP280;25639;53.634;9.880;2022-07-06T11:54:13;157666.72;;;21.35
39959;BMP280;25639;53.634;9.880;2022-07-06T11:56:46;157732.25;;;21.61
39959;BMP280;25639;53.634;9.880;2022-07-06T11:59:12;157886.31;;;22.22
39959;BMP280;25639;53.634;9.880;2022-07-06T12:01:37;158004.53;;;22.70
39959;BMP280;25639;53.634;9.880;2022-07-06T12:04:07;157951.88;;;22.49
39959;BMP280;25639;53.634;9.880;2022-07-06T12:06:33;157867.06;;;22.15
39959;BMP280;25639;53.634;9.880;2022-07-06T12:08:59;157832.38;;;22.01
39959;BMP280;25639;53.634;9.880;2022-07-06T12:11:30;157969.84;;;22.56
39959;BMP280;25639;53.634;9.880;2022-07-06T12:14:01;158050.78;;;22.88
39959;BMP280;25639;53.634;9.880;2022-07-06T12:16:32;158147.16;;;23.27
39959;BMP280;25639;53.634;9.880;2022-07-06T12:18:59;158008.34;;;22.71
39959;BMP280;25639;53.634;9.880;2022-07-06T12:21:25;157837.50;;;22.03
39959;BMP280;25639;53.634;9.880;2022-07-06T12:23:51;157668.00;;;21.35
39959;BMP280;25639;53.634;9.880;2022-07-06T12:26:20;157575.63;;;20.98
39959;BMP280;25639;53.634;9.880;2022-07-06T12:28:46;157511.44;;;20.72
39959;BMP280;25639;53.634;9.880;2022-07-06T12:31:38;157551.22;;;20.88
39959;BMP280;25639;53.634;9.880;2022-07-06T12:34:04;157641.06;;;21.24
39959;BMP280;25639;53.634;9.880;2022-07-06T12:36:31;157662.88;;;21.33
39959;BMP280;25639;53.634;9.880;2022-07-06T12:38:57;157725.81;;;21.58
39959;BMP280;25639;53.634;9.880;2022-07-06T12:41:27;157750.22;;;21.68
39959;BMP280;25639;53.634;9.880;2022-07-06T12:44:01;157608.97;;;21.11
39959;BMP280;25639;53.634;9.880;2022-07-06T12:46:35;157433.16;;;20.41
39959;BMP280;25639;53.634;9.880;2022-07-06T12:49:10;157368.97;;;20.15
39959;BMP280;25639;53.634;9.880;2022-07-06T12:52:12;157317.69;;;19.95
39959;BMP280;25639;53.634;9.880;2022-07-06T12:54:43;157338.25;;;20.03
39959;BMP280;25639;53.634;9.880;2022-07-06T12:59:55;157474.19;;;20.57
39959;BMP280;25639;53.634;9.880;2022-07-06T13:02:26;157475.47;;;20.58
39959;BMP280;25639;53.634;9.880;2022-07-06T13:04:57;157443.41;;;20.45
39959;BMP280;25639;53.634;9.880;2022-07-06T13:07:23;157537.09;;;20.83
39959;BMP280;25639;53.634;9.880;2022-07-06T13:09:49;157632.06;;;21.21
39959;BMP280;25639;53.634;9.880;2022-07-06T13:12:14;157624.41;;;21.18
39959;BMP280;25639;53.634;9.880;2022-07-06T13:14:39;157719.41;;;21.56
39959;BMP280;25639;53.634;9.880;2022-07-06T13:17:05;157849.09;;;22.07
39959;BMP280;25639;53.634;9.880;2022-07-06T13:19:30;157761.75;;;21.73
39959;BMP280;25639;53.634;9.880;2022-07-06T13:21:55;157755.38;;;21.70
39959;BMP280;25639;53.634;9.880;2022-07-06T13:24:21;157763.06;;;21.73
39959;BMP280;25639;53.634;9.880;2022-07-06T13:26:46;157799.03;;;21.87
39959;BMP280;25639;53.634;9.880;2022-07-06T13:29:12;157843.97;;;22.05
39959;BMP280;25639;53.634;9.880;2022-07-06T13:31:39;157840.09;;;22.04
39959;BMP280;25639;53.634;9.880;2022-07-06T13:34:05;157739.94;;;21.64
39959;BMP280;25639;53.634;9.880;2022-07-06T13:36:31;157746.38;;;21.66
39959;BMP280;25639;53.634;9.880;2022-07-06T13:38:57;157742.53;;;21.65
39959;BMP280;25639;53.634;9.880;2022-07-06T13:41:22;157588.47;;;21.03
39959;BMP280;25639;53.634;9.880;2022-07-06T13:43:48;157679.56;;;21.40
39959;BMP280;25639;53.634;9.880;2022-07-06T13:46:13;157773.34;;;21.77
39959;BMP280;25639;53.634;9.880;2022-07-06T13:48:38;157805.41;;;21.90
39959;BMP280;25639;53.634;9.880;2022-07-06T13:51:04;157863.22;;;22.13
39959;BMP280;25639;53.634;9.880;2022-07-06T13:53:29;157904.34;;;22.30
39959;BMP280;25639;53.634;9.880;2022-07-06T13:55:56;157887.59;;;22.23
39959;BMP280;25639;53.634;9.880;2022-07-06T13:58:21;157883.78;;;22.21
39959;BMP280;25639;53.634;9.880;2022-07-06T14:00:47;157881.19;;;22.20
39959;BMP280;25639;53.634;9.880;2022-07-06T14:03:12;157882.44;;;22.21
39959;BMP280;25639;53.634;9.880;2022-07-06T14:05:37;157879.91;;;22.20
39959;BMP280;25639;53.634;9.880;2022-07-06T14:08:03;157805.41;;;21.90